This is the latest recevied weather packets stored in our database for station/object N2OCK. If no packets are shown the sender has not sent any weather packets the latest 1 day(s).
| Time | Temp. | Humidity | Pressure | Rain* | Wind** | Luminosity | Snow |
|---|---|---|---|---|---|---|---|
| 1778030606 | 17.22° C | 74% | 1011.5 hPa | 0 mm | 3.58 m/s, 262° | 0 W/m² | - |
| 1778030304 | 17.22° C | 73% | 1011.4 hPa | 0 mm | 3.58 m/s, 179° | 0 W/m² | - |
| 1778030000 | 17.22° C | 73% | 1011.2 hPa | 0 mm | 2.68 m/s, 174° | 0 W/m² | - |
| 1778029698 | 17.22° C | 72% | 1011.2 hPa | 0 mm | 1.79 m/s, 253° | 0 W/m² | - |
| 1778029395 | 17.22° C | 72% | 1011 hPa | 0 mm | 1.34 m/s, 273° | 0 W/m² | - |
| 1778029092 | 17.22° C | 72% | 1011.1 hPa | 0 mm | 1.79 m/s, 215° | 0 W/m² | - |
| 1778028789 | 17.22° C | 72% | 1011.1 hPa | 0 mm | 2.24 m/s, 208° | 0 W/m² | - |
| 1778028485 | 17.22° C | 72% | 1011 hPa | 0 mm | 1.79 m/s, 230° | 0 W/m² | - |
| 1778028183 | 17.22° C | 71% | 1011.1 hPa | 0 mm | 2.24 m/s, 244° | 0 W/m² | - |
| 1778027878 | 17.22° C | 72% | 1010.9 hPa | 0 mm | 1.79 m/s, 226° | 0 W/m² | - |
| 1778027575 | 17.22° C | 72% | 1010.9 hPa | 0 mm | 1.34 m/s, 240° | 0 W/m² | - |
| 1778027271 | 17.22° C | 72% | 1011.1 hPa | 0 mm | 4.47 m/s, 207° | 0 W/m² | - |
| 1778026968 | 17.22° C | 72% | 1010.7 hPa | 0 mm | 2.24 m/s, 165° | 0 W/m² | - |
| 1778026663 | 17.22° C | 72% | 1010.7 hPa | 0 mm | 2.24 m/s, 218° | 0 W/m² | - |
| 1778026361 | 17.22° C | 72% | 1010.8 hPa | 0 mm | 2.68 m/s, 247° | 0 W/m² | - |
| 1778026058 | 17.22° C | 72% | 1010.5 hPa | 0 mm | 2.68 m/s, 237° | 0 W/m² | - |
| 1778025755 | 17.22° C | 72% | 1010.4 hPa | 0 mm | 3.13 m/s, 235° | 1 W/m² | - |
| 1778025452 | 17.22° C | 72% | 1010.6 hPa | 0 mm | 3.13 m/s, 177° | 2 W/m² | - |
| 1778025150 | 17.22° C | 72% | 1010.5 hPa | 0 mm | 1.79 m/s, 239° | 3 W/m² | - |
| 1778024847 | 17.22° C | 72% | 1010.4 hPa | 0 mm | 3.13 m/s, 285° | 5 W/m² | - |
| 1778024544 | 17.22° C | 72% | 1010.3 hPa | 0 mm | 2.68 m/s, 230° | 8 W/m² | - |
| 1778024240 | 17.22° C | 72% | 1010.2 hPa | 0 mm | 2.68 m/s, 171° | 11 W/m² | - |
| 1778023939 | 17.22° C | 72% | 1010.4 hPa | 0 mm | 3.13 m/s, 202° | 15 W/m² | - |
| 1778023635 | 17.22° C | 71% | 1010 hPa | 0 mm | 2.24 m/s, 92° | 18 W/m² | - |
| 1778023333 | 17.78° C | 70% | 1009.9 hPa | 0 mm | 1.79 m/s, 263° | 21 W/m² | - |
* Rain latest hour (hover to see other rain measurements)
** Current wind speed in m/s (hover to see current wind gust speed)